Time;durP1;ratioP1;P1;durP2;ratioP2;P2;SDS_P1;SDS_P2;PMS_P1;PMS_P2;Temp;Humidity;BMP_temperature;BMP_pressure;BME280_temperature;BME280_humidity;BME280_pressure;Samples;Min_cycle;Max_cycle;Signal;HPM_P1;HPM_P2
2023/08/18 00:00:15;;;;;;;6.80;6.20;;;;;;;17.54;100.00;101748.91;5130905;28;20368;-36
2023/08/18 00:02:41;;;;;;;;;;;;;;;17.70;100.00;101758.09;5132155;27;20675;-36
2023/08/18 00:05:07;;;;;;;6.72;5.57;;;;;;;17.74;100.00;101764.75;5131382;28;19930;-37
2023/08/18 00:07:32;;;;;;;7.15;5.88;;;;;;;17.66;100.00;101760.53;5131289;27;20352;-37
2023/08/18 00:09:58;;;;;;;;;;;;;;;17.76;100.00;101757.09;5123428;27;20094;-37
2023/08/18 00:12:23;;;;;;;6.97;5.30;;;;;;;17.78;100.00;101759.59;5117087;28;19907;-36
2023/08/18 00:14:50;;;;;;;;;;;;;;;17.84;100.00;101755.84;5117352;28;20261;-36
2023/08/18 00:17:15;;;;;;;6.40;5.80;;;;;;;17.76;100.00;101751.63;5116913;28;19914;-37
2023/08/18 00:19:40;;;;;;;7.18;6.53;;;;;;;17.60;100.00;101750.63;5116933;28;20451;-37
2023/08/18 00:22:06;;;;;;;;;;;;;;;17.72;100.00;101758.69;5118099;28;20530;-37
2023/08/18 00:24:31;;;;;;;7.30;6.47;;;;;;;17.53;100.00;101738.22;5117556;28;19907;-36
2023/08/18 00:26:56;;;;;;;;;;;;;;;17.59;100.00;101746.22;5117187;28;20028;-37
2023/08/18 00:29:21;;;;;;;6.90;6.20;;;;;;;17.54;100.00;101743.44;5116669;28;20355;-36
2023/08/18 00:31:47;;;;;;;;;;;;;;;17.59;100.00;101740.75;5117656;27;20563;-37
2023/08/18 00:34:12;;;;;;;7.17;6.53;;;;;;;17.48;100.00;101742.56;5116842;28;20003;-37
2023/08/18 00:36:37;;;;;;;;;;;;;;;17.51;100.00;101739.28;5117559;28;20242;-37
2023/08/18 00:39:03;;;;;;;6.43;5.83;;;;;;;17.38;100.00;101739.69;5116674;28;19917;-37
2023/08/18 00:41:28;;;;;;;;;;;;;;;17.41;100.00;101741.91;5117436;28;20250;-36
2023/08/18 00:43:54;;;;;;;7.43;6.13;;;;;;;17.39;100.00;101737.78;5116364;28;19903;-37
2023/08/18 00:46:20;;;;;;;8.65;6.82;;;;;;;17.35;100.00;101742.09;5116916;28;20023;-37
2023/08/18 00:48:47;;;;;;;7.28;6.57;;;;;;;17.37;100.00;101738.06;5116253;28;20027;-37
2023/08/18 00:51:13;;;;;;;7.00;6.30;;;;;;;17.42;100.00;101740.00;5116523;28;20023;-36
2023/08/18 00:53:39;;;;;;;;;;;;;;;17.48;100.00;101739.00;5116950;28;20190;-37
2023/08/18 00:56:06;;;;;;;6.43;5.77;;;;;;;17.42;100.00;101734.53;5116998;28;19914;-37
2023/08/18 00:58:33;;;;;;;6.07;5.47;;;;;;;17.38;100.00;101731.50;5116069;28;20346;-37
2023/08/18 01:00:59;;;;;;;6.88;6.03;;;;;;;17.41;100.00;101743.81;5116006;28;20019;-37
2023/08/18 01:03:24;;;;;;;;;;;;;;;17.48;100.00;101744.47;5116435;28;20028;-37
2023/08/18 01:05:50;;;;;;;6.40;5.70;;;;;;;17.37;100.00;101726.25;5116720;28;20328;-37
2023/08/18 01:08:15;;;;;;;;;;;;;;;17.50;100.00;101739.56;5116280;28;20020;-36
2023/08/18 01:10:48;;;;;;;7.32;6.63;;;;;;;17.36;100.00;101730.09;5115882;28;19956;-36
2023/08/18 01:13:39;;;;;;;6.38;5.70;;;;;;;17.37;100.00;101729.84;5115771;28;20027;-37
2023/08/18 01:16:09;;;;;;;6.40;5.78;;;;;;;17.38;100.00;101727.94;5116401;28;20011;-36
2023/08/18 01:18:34;;;;;;;5.65;5.15;;;;;;;17.42;100.00;101729.06;5116495;28;20047;-36
2023/08/18 01:21:01;;;;;;;;;;;;;;;17.49;100.00;101729.72;5114944;28;20455;-37
2023/08/18 01:23:39;;;;;;;5.97;5.47;;;;;;;17.30;100.00;101723.75;5116372;28;20276;-36
2023/08/18 01:26:05;;;;;;;6.30;5.70;;;;;;;17.39;100.00;101732.31;5115525;28;20057;-37
2023/08/18 01:28:31;;;;;;;;;;;;;;;17.45;100.00;101729.38;5116323;28;20028;-36
2023/08/18 01:30:57;;;;;;;6.65;5.68;;;;;;;17.31;100.00;101724.56;5115162;28;20347;-36
2023/08/18 01:34:04;;;;;;;7.97;5.82;;;;;;;17.36;100.00;101716.41;5115767;28;20019;-36
2023/08/18 01:36:41;;;;;;;6.30;5.50;;;;;;;17.33;100.00;101714.22;5093294;28;20063;-36
2023/08/18 01:39:09;;;;;;;6.22;5.50;;;;;;;17.32;100.00;101713.38;5116114;28;20340;-37
2023/08/18 01:41:35;;;;;;;5.63;5.10;;;;;;;17.24;100.00;101706.44;5115536;28;20016;-36
2023/08/18 01:44:01;;;;;;;7.03;5.32;;;;;;;17.28;100.00;101703.22;5115463;28;20076;-37
2023/08/18 01:46:26;;;;;;;;;;;;;;;17.34;100.00;101702.19;5115566;28;20394;-36
2023/08/18 01:48:51;;;;;;;7.47;6.18;;;;;;;17.15;100.00;101699.78;5115084;28;19903;-37
2023/08/18 01:51:16;;;;;;;;;;;;;;;17.23;100.00;101699.34;5116070;28;20031;-36
2023/08/18 01:53:42;;;;;;;6.20;5.60;;;;;;;17.12;100.00;101694.81;5115062;28;20343;-37
2023/08/18 01:56:07;;;;;;;;;;;;;;;17.22;100.00;101699.56;5116039;28;20601;-37
2023/08/18 01:58:33;;;;;;;6.78;6.05;;;;;;;16.96;100.00;101666.47;5115073;28;19981;-37
2023/08/18 02:00:58;;;;;;;;;;;;;;;17.16;100.00;101693.22;5115315;28;20110;-36
2023/08/18 02:03:25;;;;;;;6.18;5.57;;;;;;;17.14;100.00;101687.19;5114783;27;19915;-36
2023/08/18 02:05:56;;;;;;;6.38;5.78;;;;;;;17.11;100.00;101687.69;5115342;28;20454;-36
2023/08/18 02:08:21;;;;;;;8.00;6.90;;;;;;;17.08;100.00;101699.16;5114468;28;20032;-36
2023/08/18 02:10:46;;;;;;;;;;;;;;;17.15;100.00;101699.78;5115423;28;20016;-36
2023/08/18 02:13:13;;;;;;;7.38;6.68;;;;;;;17.04;100.00;101698.00;5114701;28;19915;-36
2023/08/18 02:15:38;;;;;;;6.53;5.82;;;;;;;17.12;100.00;101692.06;5114316;28;20034;-37
2023/08/18 02:18:04;;;;;;;;;;;;;;;17.21;100.00;101703.38;5115550;28;20024;-36
2023/08/18 02:20:29;;;;;;;7.88;6.65;;;;;;;17.09;100.00;101703.53;5114611;28;19915;-36
2023/08/18 02:22:55;;;;;;;;;;;;;;;17.06;100.00;101703.19;5114661;28;20438;-36
2023/08/18 02:25:21;;;;;;;7.00;6.40;;;;;;;17.00;100.00;101696.84;5114437;28;19931;-37
2023/08/18 02:27:46;;;;;;;8.48;7.57;;;;;;;16.80;100.00;101672.00;5114490;28;20028;-37
2023/08/18 02:30:11;;;;;;;;;;;;;;;16.98;100.00;101686.19;5114794;28;20102;-37
2023/08/18 02:32:37;;;;;;;7.20;6.53;;;;;;;16.91;100.00;101692.91;5114157;28;19955;-37
2023/08/18 02:35:02;;;;;;;;;;;;;;;16.95;100.00;101683.94;5114723;28;20020;-37
2023/08/18 02:37:28;;;;;;;7.18;6.47;;;;;;;16.85;100.00;101664.69;5114791;28;19961;-36
2023/08/18 02:39:53;;;;;;;;;;;;;;;17.00;100.00;101677.72;5114993;28;20042;-36
2023/08/18 02:42:19;;;;;;;6.93;6.30;;;;;;;16.93;100.00;101661.53;5114283;28;19903;-36
2023/08/18 02:44:45;;;;;;;6.95;6.28;;;;;;;16.97;100.00;101684.50;5114471;28;20307;-36
2023/08/18 02:47:11;;;;;;;;;;;;;;;17.07;100.00;101688.44;5115479;28;20027;-36
2023/08/18 02:49:37;;;;;;;7.18;6.47;;;;;;;16.88;100.00;101668.81;5114098;28;20336;-36
2023/08/18 02:52:02;;;;;;;;;;;;;;;17.01;100.00;101673.09;5114644;28;20019;-37
2023/08/18 02:54:27;;;;;;;7.45;6.75;;;;;;;16.99;100.00;101678.81;5114051;28;19908;-37
2023/08/18 02:56:53;;;;;;;;;;;;;;;17.01;100.00;101679.38;5114800;28;20036;-37
2023/08/18 02:59:19;;;;;;;7.13;6.53;;;;;;;16.96;100.00;101676.56;5114504;28;19911;-37
2023/08/18 03:01:44;;;;;;;;;;;;;;;17.04;100.00;101678.06;5114511;28;20371;-37
2023/08/18 03:04:10;;;;;;;7.68;6.38;;;;;;;16.90;100.00;101677.59;5113750;28;19908;-37
2023/08/18 03:06:35;;;;;;;;;;;;;;;16.97;100.00;101675.47;5114514;28;20028;-37
2023/08/18 03:09:00;;;;;;;7.83;7.13;;;;;;;16.80;100.00;101674.72;5113988;28;19912;-37
2023/08/18 03:11:26;;;;;;;;;;;;;;;16.86;100.00;101665.50;5114456;28;20256;-37
2023/08/18 03:13:51;;;;;;;7.13;6.43;;;;;;;16.81;100.00;101665.44;5114687;28;19929;-37
2023/08/18 03:16:17;;;;;;;;;;;;;;;16.88;100.00;101663.34;5114131;28;20419;-37
2023/08/18 03:18:43;;;;;;;7.50;6.80;;;;;;;16.78;100.00;101666.75;5113740;28;19907;-37
2023/08/18 03:21:08;;;;;;;;;;;;;;;16.90;100.00;101672.94;5115177;28;20056;-37
2023/08/18 03:23:33;;;;;;;7.70;7.00;;;;;;;16.81;100.00;101668.19;5113849;28;19904;-37
2023/08/18 03:26:03;;;;;;;;;;;;;;;16.91;100.00;101673.78;5114184;28;20263;-36
2023/08/18 03:28:31;;;;;;;7.47;6.78;;;;;;;16.85;100.00;101666.59;5114594;28;19904;-36
2023/08/18 03:31:00;;;;;;;7.25;6.60;;;;;;;16.82;100.00;101669.81;5113997;28;20368;-36
2023/08/18 03:33:26;;;;;;;9.05;7.38;;;;;;;16.84;100.00;101670.41;5114068;28;20027;-36
2023/08/18 03:35:51;;;;;;;8.52;7.72;;;;;;;16.78;100.00;101674.97;5113453;28;20378;-36
2023/08/18 03:38:17;;;;;;;;;;;;;;;16.85;100.00;101664.69;5113786;28;20027;-37
2023/08/18 03:40:42;;;;;;;9.27;7.38;;;;;;;16.68;100.00;101667.41;5113373;28;19907;-37
2023/08/18 03:43:07;;;;;;;;;;;;;;;16.79;100.00;101659.38;5114421;28;20020;-36
2023/08/18 03:45:33;;;;;;;7.82;7.13;;;;;;;16.66;100.00;101658.66;5115914;28;19960;-36
2023/08/18 03:47:59;;;;;;;;;;;;;;;16.77;100.00;101656.94;5118540;28;20027;-36
2023/08/18 03:50:24;;;;;;;8.40;7.60;;;;;;;16.62;100.00;101662.16;5118019;28;19908;-36
2023/08/18 03:52:49;;;;;;;;;;;;;;;16.65;100.00;101667.13;5117895;28;20471;-37
2023/08/18 03:55:15;;;;;;;8.13;7.40;;;;;;;16.62;100.00;101676.63;5117383;28;19912;-37
2023/08/18 03:57:40;;;;;;;;;;;;;;;16.68;100.00;101675.59;5118382;27;20282;-37
2023/08/18 04:00:09;;;;;;;9.33;8.37;;;;;;;16.52;100.00;101672.91;5118112;28;19931;-37
2023/08/18 04:02:34;;;;;;;8.90;8.10;;;;;;;16.49;100.00;101666.03;5117847;28;20249;-37
2023/08/18 04:05:00;;;;;;;;;;;;;;;16.60;100.00;101672.50;5118213;28;20348;-36
2023/08/18 04:07:25;;;;;;;8.57;7.80;;;;;;;16.58;100.00;101670.00;5117404;28;19908;-36
2023/08/18 04:09:50;;;;;;;;;;;;;;;16.66;100.00;101671.50;5117504;28;20791;-37
2023/08/18 04:12:16;;;;;;;8.17;7.33;;;;;;;16.58;100.00;101664.53;5117097;28;19904;-37
2023/08/18 04:14:41;;;;;;;;;;;;;;;16.59;100.00;101663.50;5117938;28;20261;-36
2023/08/18 04:17:06;;;;;;;7.83;7.13;;;;;;;16.42;100.00;101643.56;5116742;28;20347;-37
2023/08/18 04:19:32;;;;;;;;;;;;;;;16.60;100.00;101669.78;5116887;28;20670;-37
2023/08/18 04:21:57;;;;;;;9.75;8.75;;;;;;;16.38;100.00;101667.81;5116562;28;19914;-37
2023/08/18 04:24:22;;;;;;;;;;;;;;;16.44;100.00;101672.25;5117201;28;20065;-37
2023/08/18 04:26:48;;;;;;;9.95;9.05;;;;;;;16.35;100.00;101662.03;5116473;28;19914;-37
2023/08/18 04:29:13;;;;;;;;;;;;;;;16.44;100.00;101668.69;5117072;28;20115;-37
2023/08/18 04:31:38;;;;;;;8.75;7.95;;;;;;;16.31;100.00;101647.22;5116390;28;20295;-37
2023/08/18 04:34:04;;;;;;;;;;;;;;;16.48;100.00;101654.31;5116781;28;20020;-37
2023/08/18 04:36:29;;;;;;;10.00;8.52;;;;;;;16.40;100.00;101645.75;5116846;28;19912;-37
2023/08/18 04:38:56;;;;;;;;;;;;;;;16.51;100.00;101655.72;5116829;28;20020;-37
2023/08/18 04:41:21;;;;;;;8.90;8.10;;;;;;;16.44;100.00;101646.88;5116774;28;19973;-37
2023/08/18 04:43:49;;;;;;;;;;;;;;;16.47;100.00;101652.66;5116599;28;20456;-36
2023/08/18 04:46:15;;;;;;;9.35;8.45;;;;;;;16.43;100.00;101658.88;5116127;28;19915;-36
2023/08/18 04:48:40;;;;;;;;;;;;;;;16.43;100.00;101661.59;5116512;27;20031;-37
2023/08/18 04:51:06;;;;;;;10.33;8.97;;;;;;;16.34;100.00;101657.63;5116571;28;20421;-37
2023/08/18 04:53:31;;;;;;;;;;;;;;;16.42;100.00;101655.31;5116693;28;20297;-36
2023/08/18 04:55:56;;;;;;;9.35;8.30;;;;;;;16.48;100.00;101658.94;5116707;28;20236;-36
2023/08/18 04:58:21;;;;;;;;;;;;;;;16.53;100.00;101661.75;5116905;28;20069;-37
2023/08/18 05:00:47;;;;;;;9.57;8.50;;;;;;;16.45;100.00;101660.28;5116021;28;19947;-36
2023/08/18 05:03:12;;;;;;;;;;;;;;;16.46;100.00;101663.84;5116278;28;20459;-38
2023/08/18 05:05:40;;;;;;;10.32;8.77;;;;;;;16.51;100.00;101669.38;5115785;28;19908;-38
2023/08/18 05:08:06;;;;;;;11.40;9.65;;;;;;;16.48;100.00;101665.22;5115978;28;20368;-38
2023/08/18 05:10:31;;;;;;;10.23;9.05;;;;;;;16.54;100.00;101668.03;5115629;28;20016;-37
2023/08/18 05:12:57;;;;;;;;;;;;;;;16.60;100.00;101669.78;5116241;28;20389;-37
2023/08/18 05:15:23;;;;;;;13.13;10.02;;;;;;;16.51;100.00;101655.72;5115424;28;19957;-37
2023/08/18 05:17:48;;;;;;;;;;;;;;;16.65;100.00;101665.22;5116401;28;20063;-37
2023/08/18 05:20:14;;;;;;;11.13;8.55;;;;;;;16.69;100.00;101660.91;5115437;27;19907;-38
2023/08/18 05:22:40;;;;;;;;;;;;;;;16.78;100.00;101655.84;5115508;28;20498;-38
2023/08/18 05:25:07;;;;;;;10.40;8.35;;;;;;;16.80;100.00;101645.50;5115498;28;19951;-38
2023/08/18 05:27:34;;;;;;;12.52;10.30;;;;;;;16.64;100.00;101632.66;5114975;28;20031;-47
2023/08/18 05:29:59;;;;;;;11.88;10.65;;;;;;;16.68;100.00;101640.09;5115156;28;20110;-38
2023/08/18 05:32:25;;;;;;;;;;;;;;;16.79;100.00;101641.13;5115636;28;20093;-37
2023/08/18 05:34:54;;;;;;;12.63;9.38;;;;;;;16.76;100.00;101635.34;5114774;28;19911;-37
2023/08/18 05:37:19;;;;;;;11.27;10.18;;;;;;;16.64;100.00;101644.44;5115869;28;20023;-37
2023/08/18 05:39:45;;;;;;;;;;;;;;;16.58;100.00;101655.53;5115346;28;20371;-37
2023/08/18 05:42:10;;;;;;;13.77;12.38;;;;;;;16.46;100.00;101650.19;5115334;28;20256;-37
2023/08/18 05:44:35;;;;;;;;;;;;;;;16.58;100.00;101659.09;5115040;28;20103;-37
2023/08/18 05:47:00;;;;;;;13.37;11.17;;;;;;;16.60;100.00;101650.66;5115170;28;19912;-37
2023/08/18 05:49:26;;;;;;;;;;;;;;;16.58;100.00;101650.91;5115299;28;20721;-37
2023/08/18 05:51:51;;;;;;;13.13;11.73;;;;;;;16.57;100.00;101651.97;5115081;28;19930;-38
2023/08/18 05:54:16;;;;;;;;;;;;;;;16.62;100.00;101654.78;5114798;28;20718;-38
2023/08/18 05:56:42;;;;;;;13.23;11.73;;;;;;;16.59;100.00;101658.03;5115274;28;20002;-36
2023/08/18 05:59:07;;;;;;;;;;;;;;;16.69;100.00;101655.44;5115013;28;20459;-36
2023/08/18 06:01:32;;;;;;;13.73;12.20;;;;;;;16.64;100.00;101658.09;5114669;28;20343;-37
2023/08/18 06:03:58;;;;;;;;;;;;;;;16.67;100.00;101660.31;5114949;28;20729;-37
2023/08/18 06:06:23;;;;;;;14.27;12.77;;;;;;;16.62;100.00;101659.41;5114479;28;19957;-37
2023/08/18 06:08:48;;;;;;;;;;;;;;;16.76;100.00;101654.44;5114362;28;20296;-37
2023/08/18 06:11:15;;;;;;;12.73;11.53;;;;;;;16.62;100.00;101632.09;5115605;28;19936;-37
2023/08/18 06:13:40;;;;;;;12.75;11.20;;;;;;;16.71;100.00;101652.44;5114611;28;20261;-37
2023/08/18 06:16:05;;;;;;;;;;;;;;;16.83;100.00;101653.19;5115088;28;20045;-37
2023/08/18 06:18:32;;;;;;;12.63;11.27;;;;;;;16.85;100.00;101659.22;5114520;28;20362;-37
2023/08/18 06:20:58;;;;;;;13.70;12.25;;;;;;;16.81;100.00;101655.34;5114817;28;20023;-37
2023/08/18 06:23:23;;;;;;;;;;;;;;;16.94;100.00;101659.63;5115275;28;20053;-37
2023/08/18 06:25:49;;;;;;;12.60;10.80;;;;;;;16.95;100.00;101655.81;5114703;28;19956;-37
2023/08/18 06:28:14;;;;;;;;;;;;;;;16.93;100.00;101660.69;5114865;28;20609;-36
2023/08/18 06:30:39;;;;;;;14.00;11.93;;;;;;;16.83;100.00;101646.88;5114736;28;19933;-36
2023/08/18 06:33:04;;;;;;;;;;;;;;;16.98;100.00;101663.47;5114881;28;20246;-37
2023/08/18 06:35:30;;;;;;;12.48;11.18;;;;;;;17.01;100.00;101656.69;5114346;28;20040;-37
2023/08/18 06:37:55;;;;;;;;;;;;;;;17.08;100.00;101654.56;5115550;28;20450;-37
2023/08/18 06:40:20;;;;;;;13.50;12.10;;;;;;;16.96;100.00;101644.63;5113931;28;19915;-37
2023/08/18 06:42:46;;;;;;;;;;;;;;;17.11;100.00;101651.34;5114677;28;20268;-37
2023/08/18 06:45:11;;;;;;;13.50;12.10;;;;;;;17.00;100.00;101639.47;5114440;28;19907;-37
2023/08/18 06:47:36;;;;;;;;;;;;;;;17.13;100.00;101641.81;5114665;28;20451;-37
2023/08/18 06:50:05;;;;;;;12.67;11.27;;;;;;;17.12;100.00;101648.34;5113858;28;20313;-37
2023/08/18 06:52:31;;;;;;;13.50;12.10;;;;;;;17.13;100.00;101650.03;5114375;28;20723;-37
2023/08/18 06:54:57;;;;;;;13.25;11.55;;;;;;;17.08;100.00;101641.75;5114115;28;20032;-37
2023/08/18 06:57:22;;;;;;;;;;;;;;;17.19;100.00;101643.53;5114602;28;20375;-37
2023/08/18 06:59:47;;;;;;;14.85;12.82;;;;;;;17.10;100.00;101641.50;5114649;28;19955;-37
2023/08/18 07:02:13;;;;;;;;;;;;;;;17.16;100.00;101641.28;5114548;28;20061;-37
2023/08/18 07:04:38;;;;;;;13.18;11.32;;;;;;;17.11;100.00;101646.69;5114766;28;19907;-37
2023/08/18 07:07:03;;;;;;;;;;;;;;;17.20;100.00;101649.81;5114410;28;20038;-37
2023/08/18 07:09:29;;;;;;;13.45;12.13;;;;;;;17.08;100.00;101639.03;5114746;28;19907;-37
2023/08/18 07:11:54;;;;;;;;;;;;;;;17.19;100.00;101640.78;5114082;28;20047;-37
2023/08/18 07:14:19;;;;;;;13.52;12.10;;;;;;;17.22;100.00;101634.81;5114122;28;19960;-37
2023/08/18 07:16:45;;;;;;;;;;;;;;;17.32;100.00;101636.81;5114584;28;20439;-37
2023/08/18 07:19:10;;;;;;;13.55;12.05;;;;;;;17.23;100.00;101636.47;5113595;28;19911;-37
2023/08/18 07:21:35;;;;;;;;;;;;;;;17.31;100.00;101635.19;5118788;28;20058;-37
2023/08/18 07:24:01;;;;;;;14.85;13.27;;;;;;;17.18;100.00;101627.41;5118740;28;19907;-37
2023/08/18 07:26:26;;;;;;;;;;;;;;;17.35;100.00;101638.22;5118689;28;20024;-36
2023/08/18 07:28:51;;;;;;;16.10;13.68;;;;;;;17.29;100.00;101636.53;5117600;28;19904;-36
2023/08/18 07:31:17;;;;;;;;;;;;;;;17.41;100.00;101632.53;5118276;28;20416;-37
2023/08/18 07:33:42;;;;;;;14.48;13.05;;;;;;;17.43;100.00;101637.78;5117842;28;19903;-37
2023/08/18 07:36:08;;;;;;;;;;;;;;;17.40;100.00;101633.63;5118499;28;20363;-37
2023/08/18 07:38:34;;;;;;;15.50;14.00;;;;;;;17.44;100.00;101629.31;5117614;28;19914;-37
2023/08/18 07:40:59;;;;;;;15.75;14.18;;;;;;;17.46;100.00;101632.59;5118007;27;20398;-37
2023/08/18 07:43:25;;;;;;;;;;;;;;;17.54;100.00;101634.06;5117741;28;20019;-37
2023/08/18 07:45:50;;;;;;;16.10;14.43;;;;;;;17.36;100.00;101626.19;5117931;28;19943;-37
2023/08/18 07:48:15;;;;;;;;;;;;;;;17.42;100.00;101634.22;5118345;28;20508;-37
2023/08/18 07:50:41;;;;;;;16.25;14.57;;;;;;;17.36;100.00;101621.56;5117432;28;19904;-37
2023/08/18 07:53:06;;;;;;;;;;;;;;;17.48;100.00;101635.09;5117916;28;20452;-37
2023/08/18 07:55:32;;;;;;;18.50;16.20;;;;;;;17.33;100.00;101643.13;5117693;28;19910;-37
2023/08/18 07:57:57;;;;;;;;;;;;;;;17.45;100.00;101644.63;5118184;28;20114;-37
2023/08/18 08:00:23;;;;;;;17.13;15.53;;;;;;;17.45;100.00;101641.88;5118071;28;19911;-37
2023/08/18 08:02:48;;;;;;;;;;;;;;;17.57;100.00;101647.22;5117047;28;20265;-37
2023/08/18 08:05:19;;;;;;;15.77;14.10;;;;;;;17.59;100.00;101642.31;5117996;28;19914;-37
2023/08/18 08:07:44;;;;;;;15.43;13.68;;;;;;;17.72;100.00;101650.09;5117216;28;20011;-37
2023/08/18 08:10:10;;;;;;;;;;;;;;;17.84;100.00;101649.13;5118175;28;20023;-37
2023/08/18 08:12:38;;;;;;;15.45;13.85;;;;;;;17.82;100.00;101643.94;5117633;28;19911;-37
2023/08/18 08:15:04;;;;;;;15.00;13.50;;;;;;;17.95;100.00;101640.75;5116962;28;20027;-37
2023/08/18 08:17:30;;;;;;;16.17;13.70;;;;;;;17.92;100.00;101652.22;5116714;28;20020;-38
2023/08/18 08:19:56;;;;;;;;;;;;;;;17.93;100.00;101664.00;5117354;28;20103;-37
2023/08/18 08:22:22;;;;;;;16.08;14.48;;;;;;;17.87;100.00;101654.91;5117227;28;19955;-38
2023/08/18 08:24:48;;;;;;;15.82;13.65;;;;;;;17.78;100.00;101650.19;5117304;28;20420;-38
2023/08/18 08:27:15;;;;;;;;;;;;;;;17.89;100.00;101654.66;5117809;28;20027;-38
2023/08/18 08:29:41;;;;;;;16.67;15.05;;;;;;;17.73;100.00;101649.03;5116689;28;19912;-38
2023/08/18 08:32:06;;;;;;;;;;;;;;;17.89;100.00;101650.00;5116341;28;20061;-38
2023/08/18 08:34:31;;;;;;;15.63;14.02;;;;;;;17.94;100.00;101649.22;5116607;28;19911;-37
2023/08/18 08:36:57;;;;;;;;;;;;;;;18.07;100.00;101651.53;5117668;27;20027;-37
2023/08/18 08:39:22;;;;;;;16.05;14.43;;;;;;;17.98;100.00;101659.38;5116671;28;19907;-38
2023/08/18 08:41:48;;;;;;;16.02;14.52;;;;;;;17.94;100.00;101636.38;5116490;28;20106;-38
2023/08/18 08:44:13;;;;;;;17.05;15.35;;;;;;;18.07;100.00;101659.75;5116118;28;20027;-37
2023/08/18 08:46:40;;;;;;;15.43;13.90;;;;;;;18.11;100.00;101668.25;5116983;28;20019;-38
2023/08/18 08:49:07;;;;;;;17.05;15.25;;;;;;;18.07;100.00;101659.75;5116054;28;20031;-38
2023/08/18 08:51:38;;;;;;;15.25;13.77;;;;;;;18.24;100.00;101665.88;5116336;28;20439;-38
2023/08/18 08:54:06;;;;;;;15.10;13.68;;;;;;;18.23;100.00;101666.16;5116256;28;20430;-38
2023/08/18 08:56:34;;;;;;;15.38;13.98;;;;;;;18.27;100.00;101659.06;5116855;28;20077;-38
2023/08/18 08:59:00;;;;;;;14.95;13.40;;;;;;;18.36;100.00;101667.63;5115827;28;20118;-38
2023/08/18 09:01:26;;;;;;;14.93;13.45;;;;;;;18.33;100.00;101660.75;5116432;28;20121;-38
2023/08/18 09:03:51;;;;;;;;;;;;;;;18.51;100.00;101676.75;5116240;28;20549;-41
2023/08/18 09:06:17;;;;;;;15.07;13.55;;;;;;;18.44;100.00;101669.84;5116010;28;19977;-38
2023/08/18 09:08:43;;;;;;;15.48;13.98;;;;;;;18.51;100.00;101673.19;5116740;28;20059;-37
2023/08/18 09:11:09;;;;;;;15.93;14.30;;;;;;;18.46;100.00;101675.91;5116199;28;20028;-38
2023/08/18 09:13:35;;;;;;;15.02;13.63;;;;;;;18.51;100.00;101673.19;5116664;28;20027;-37
2023/08/18 09:16:03;;;;;;;15.00;13.60;;;;;;;18.52;100.00;101669.38;5115827;28;20024;-37
2023/08/18 09:18:28;;;;;;;16.20;14.57;;;;;;;18.53;100.00;101671.84;5115732;27;20084;-38
2023/08/18 09:20:54;;;;;;;;;;;;;;;18.64;100.00;101680.13;5116996;28;20091;-37
2023/08/18 09:23:19;;;;;;;15.85;14.27;;;;;;;18.50;100.00;101679.78;5115426;27;19969;-37
2023/08/18 09:25:45;;;;;;;16.45;14.60;;;;;;;18.59;100.00;101672.69;5115377;28;20031;-38
2023/08/18 09:28:10;;;;;;;;;;;;;;;18.51;100.00;101671.28;5116416;28;20035;-37
2023/08/18 09:30:35;;;;;;;17.20;15.50;;;;;;;18.35;100.00;101655.00;5115185;28;20010;-37
2023/08/18 09:33:02;;;;;;;17.10;15.30;;;;;;;18.40;100.00;101652.31;5116099;28;20094;-37
2023/08/18 09:35:33;;;;;;;18.27;16.15;;;;;;;18.50;100.00;101653.22;5115130;28;20031;-37
2023/08/18 09:37:58;;;;;;;16.33;14.73;;;;;;;18.67;100.00;101658.50;5115907;28;20020;-37
2023/08/18 09:40:24;;;;;;;;;;;;;;;18.84;100.00;101652.03;5115729;28;20027;-37
2023/08/18 09:42:49;;;;;;;16.77;15.07;;;;;;;18.87;100.00;101648.78;5115286;28;19903;-37
2023/08/18 09:45:14;;;;;;;;;;;;;;;19.02;100.00;101651.56;5115378;28;20018;-37
2023/08/18 09:47:42;;;;;;;16.67;15.07;;;;;;;18.92;100.00;101637.81;5114875;28;19907;-36
2023/08/18 09:50:10;;;;;;;21.02;18.83;;;;;;;18.69;100.00;101648.16;5115132;28;20292;-37
2023/08/18 09:52:38;;;;;;;19.73;17.83;;;;;;;18.61;100.00;101645.88;5115096;28;20392;-37
2023/08/18 09:55:12;;;;;;;19.52;17.63;;;;;;;18.71;100.00;101656.91;5114783;28;20023;-37
2023/08/18 09:57:49;;;;;;;21.40;18.08;;;;;;;18.77;100.00;101655.84;5114932;28;20039;-37
2023/08/18 10:00:15;;;;;;;;;;;;;;;18.94;100.00;101649.38;5116300;28;20356;-37
2023/08/18 10:02:43;;;;;;;19.35;17.25;;;;;;;19.03;100.00;101645.84;5115460;27;19922;-37
2023/08/18 10:05:10;;;;;;;20.75;18.55;;;;;;;19.10;100.00;101642.84;5114499;28;20023;-37
2023/08/18 10:07:35;;;;;;;17.40;15.70;;;;;;;19.23;100.00;101645.09;5114789;28;20474;-37
2023/08/18 10:10:01;;;;;;;;;;;;;;;19.27;100.00;101648.09;5115211;28;20019;-37
2023/08/18 10:12:27;;;;;;;20.38;17.98;;;;;;;19.16;100.00;101644.50;5114713;28;19912;-37
2023/08/18 10:14:53;;;;;;;;;;;;;;;19.13;100.00;101650.53;5115097;28;20505;-36
2023/08/18 10:17:23;;;;;;;21.48;19.27;;;;;;;18.98;100.00;101640.34;5115270;28;19914;-37
2023/08/18 10:19:55;;;;;;;20.90;18.80;;;;;;;19.18;100.00;101639.59;5115103;28;20023;-36
2023/08/18 10:22:26;;;;;;;20.02;18.08;;;;;;;19.24;100.00;101638.50;5114567;28;20072;-37
2023/08/18 10:24:52;;;;;;;20.40;18.35;;;;;;;19.27;100.00;101629.72;5115035;28;20031;-37
2023/08/18 10:27:27;;;;;;;21.95;19.75;;;;;;;19.06;100.00;101628.03;5114781;28;20027;-37
2023/08/18 10:29:59;;;;;;;21.50;19.50;;;;;;;19.11;100.00;101621.72;5115012;28;20019;-37
2023/08/18 10:32:25;;;;;;;20.42;18.35;;;;;;;19.40;100.00;101616.59;5114431;28;20051;-37
2023/08/18 10:34:53;;;;;;;20.70;18.70;;;;;;;19.53;100.00;101608.69;5114093;28;20127;-37
2023/08/18 10:37:22;;;;;;;18.75;17.00;;;;;;;19.83;100.00;101611.75;5114616;28;20133;-36
2023/08/18 10:39:50;;;;;;;18.75;16.95;;;;;;;19.93;100.00;101598.84;5114212;28;20024;-37
2023/08/18 10:42:15;;;;;;;18.42;16.63;;;;;;;19.95;100.00;101599.38;5114843;28;20023;-37
2023/08/18 10:45:21;;;;;;;16.73;15.18;;;;;;;20.30;100.00;101598.53;5113891;28;20020;-37
2023/08/18 10:47:46;;;;;;;18.17;16.52;;;;;;;20.12;100.00;101596.34;5114178;28;20019;-37
2023/08/18 10:50:14;;;;;;;18.67;16.98;;;;;;;19.98;100.00;101606.25;5114405;28;20015;-37
2023/08/18 10:52:40;;;;;;;17.38;15.77;;;;;;;20.18;100.00;101603.47;5114713;28;20038;-37
2023/08/18 10:55:06;;;;;;;18.02;16.42;;;;;;;20.29;100.00;101598.78;5113926;28;20024;-37
2023/08/18 10:57:33;;;;;;;16.92;15.38;;;;;;;20.43;100.00;101596.28;5113714;28;20516;-37
2023/08/18 10:59:59;;;;;;;17.65;14.45;;;;;;;20.61;100.00;101592.16;5114593;28;20059;-37
2023/08/18 11:02:24;;;;;;;16.85;15.27;;;;;;;20.89;100.00;101585.16;5113945;28;20032;-37
2023/08/18 11:04:50;;;;;;;15.57;13.98;;;;;;;21.00;100.00;101597.75;5114005;28;20029;-37
2023/08/18 11:07:18;;;;;;;13.98;12.77;;;;;;;21.26;100.00;101591.00;5114578;28;20028;-37
2023/08/18 11:09:45;;;;;;;14.75;13.40;;;;;;;21.36;100.00;101584.63;5114203;28;20024;-37
2023/08/18 11:12:10;;;;;;;16.00;14.32;;;;;;;21.37;100.00;101586.28;5114023;28;20032;-37
2023/08/18 11:14:36;;;;;;;16.27;14.88;;;;;;;21.14;100.00;101576.78;5113829;28;20023;-37
2023/08/18 11:17:02;;;;;;;14.15;12.93;;;;;;;21.34;100.00;101584.09;5114503;28;20024;-38
2023/08/18 11:19:27;;;;;;;15.20;13.90;;;;;;;21.23;100.00;101566.81;5113800;28;20110;-46
2023/08/18 11:21:54;;;;;;;14.68;13.38;;;;;;;21.39;100.00;101575.81;5113894;28;20474;-38
2023/08/18 11:24:20;;;;;;;15.93;14.52;;;;;;;21.75;100.00;101562.59;5113513;28;20462;-37
2023/08/18 11:26:47;;;;;;;15.50;14.05;;;;;;;21.82;100.00;101563.09;5113588;28;20020;-37